createdAt,value
2022-08-30T00:01:57.294Z,24.50
2022-08-30T00:04:23.662Z,24.51
2022-08-30T00:06:50.060Z,24.50
2022-08-30T00:09:16.493Z,24.48
2022-08-30T00:11:42.853Z,24.47
2022-08-30T00:14:09.256Z,24.45
2022-08-30T00:16:35.674Z,24.46
2022-08-30T00:19:02.159Z,24.46
2022-08-30T00:21:28.490Z,24.44
2022-08-30T00:23:54.885Z,24.41
2022-08-30T00:26:21.250Z,24.37
2022-08-30T00:28:47.668Z,24.34
2022-08-30T00:31:15.538Z,24.34
2022-08-30T00:33:40.463Z,24.34
2022-08-30T00:36:06.949Z,24.33
2022-08-30T00:38:33.310Z,24.29
2022-08-30T00:40:59.747Z,24.24
2022-08-30T00:43:27.919Z,24.22
2022-08-30T00:45:52.575Z,24.16
2022-08-30T00:48:18.849Z,24.15
2022-08-30T00:50:45.246Z,24.15
2022-08-30T00:53:11.666Z,24.15
2022-08-30T00:55:38.830Z,24.15
2022-08-30T00:58:05.149Z,24.13
2022-08-30T01:00:30.831Z,24.11
2022-08-30T01:02:57.210Z,24.10
2022-08-30T01:05:23.637Z,24.04
2022-08-30T01:10:16.172Z,23.91
2022-08-30T01:12:42.554Z,23.95
2022-08-30T01:15:08.913Z,23.94
2022-08-30T01:17:35.279Z,23.93
2022-08-30T01:20:01.721Z,23.90
2022-08-30T01:22:28.158Z,23.95
2022-08-30T01:24:54.522Z,23.96
2022-08-30T01:27:20.883Z,23.98
2022-08-30T01:29:47.351Z,23.97
2022-08-30T01:32:13.714Z,23.95
2022-08-30T01:34:40.107Z,23.93
2022-08-30T01:37:06.498Z,23.93
2022-08-30T01:39:32.984Z,23.92
2022-08-30T01:41:59.348Z,23.92
2022-08-30T01:44:25.717Z,23.92
2022-08-30T01:46:52.178Z,23.86
2022-08-30T01:49:27.366Z,23.84
2022-08-30T01:51:44.991Z,23.82
2022-08-30T01:54:11.374Z,23.78
2022-08-30T01:56:37.810Z,23.70
2022-08-30T01:59:04.239Z,23.64
2022-08-30T02:01:30.968Z,23.54
2022-08-30T02:03:57.092Z,23.52
2022-08-30T02:06:23.399Z,23.51
2022-08-30T02:08:49.872Z,23.49
2022-08-30T02:11:16.250Z,23.45
2022-08-30T02:13:42.615Z,23.39
2022-08-30T02:16:09.009Z,23.36
2022-08-30T02:18:35.396Z,23.37
2022-08-30T02:21:01.765Z,23.36
2022-08-30T02:23:28.266Z,23.32
2022-08-30T02:25:54.629Z,23.28
2022-08-30T02:28:21.029Z,23.30
2022-08-30T02:30:47.483Z,23.29
2022-08-30T02:33:13.848Z,23.28
2022-08-30T02:35:40.187Z,23.27
2022-08-30T02:38:06.651Z,23.25
2022-08-30T02:40:33.091Z,23.26
2022-08-30T02:42:59.377Z,23.33
2022-08-30T02:45:25.784Z,23.33
2022-08-30T02:47:52.180Z,23.32
2022-08-30T02:50:18.560Z,23.32
2022-08-30T02:52:45.293Z,23.32
2022-08-30T02:55:11.330Z,23.30
2022-08-30T02:57:37.704Z,23.28
2022-08-30T03:00:04.067Z,23.26
2022-08-30T03:02:30.477Z,23.24
2022-08-30T03:04:56.845Z,23.25
2022-08-30T03:07:23.207Z,23.25
2022-08-30T03:09:49.575Z,23.25
2022-08-30T03:12:16.048Z,23.29
2022-08-30T03:14:42.426Z,23.29
2022-08-30T03:17:12.787Z,23.29
2022-08-30T03:19:35.156Z,23.26
2022-08-30T03:22:01.632Z,23.21
2022-08-30T03:24:28.042Z,23.15
2022-08-30T03:26:54.409Z,23.09
2022-08-30T03:29:20.830Z,23.07
2022-08-30T03:31:53.098Z,23.10
2022-08-30T03:34:13.565Z,23.13
2022-08-30T03:36:39.932Z,23.12
2022-08-30T03:39:06.356Z,23.09
2022-08-30T03:41:32.789Z,23.04
2022-08-30T03:44:00.205Z,23.03
2022-08-30T03:46:26.931Z,23.04
2022-08-30T03:48:52.091Z,22.99
2022-08-30T03:51:18.454Z,22.96
2022-08-30T03:53:44.872Z,22.97
2022-08-30T03:56:11.237Z,22.98
2022-08-30T03:58:37.598Z,23.00
2022-08-30T04:01:04.104Z,23.01
2022-08-30T04:03:30.437Z,23.00
2022-08-30T04:05:56.924Z,22.92
2022-08-30T04:08:23.305Z,22.85
2022-08-30T04:10:49.688Z,22.78
2022-08-30T04:13:16.285Z,22.81
2022-08-30T04:15:42.541Z,22.84
2022-08-30T04:18:08.980Z,22.85
2022-08-30T04:20:35.364Z,22.85
2022-08-30T04:23:01.742Z,22.88
2022-08-30T04:25:28.283Z,22.91
2022-08-30T04:27:54.679Z,22.92
2022-08-30T04:30:21.136Z,22.95
2022-08-30T04:32:47.576Z,22.93
2022-08-30T04:35:14.003Z,22.93
2022-08-30T04:37:40.408Z,22.93
2022-08-30T04:40:06.823Z,22.94
2022-08-30T04:42:33.211Z,22.95
2022-08-30T04:44:59.581Z,22.96
2022-08-30T04:47:25.946Z,22.93
2022-08-30T04:49:52.335Z,22.93
2022-08-30T04:52:18.707Z,22.93
2022-08-30T04:54:45.077Z,22.99
2022-08-30T04:57:11.444Z,23.06
2022-08-30T04:59:37.934Z,23.15
2022-08-30T05:02:04.334Z,23.18
2022-08-30T05:04:30.699Z,23.20
2022-08-30T05:06:57.103Z,23.20
2022-08-30T05:09:23.553Z,23.19
2022-08-30T05:11:49.996Z,23.19
2022-08-30T05:14:16.421Z,23.18
2022-08-30T05:16:42.838Z,23.17
2022-08-30T05:19:09.198Z,23.17
2022-08-30T05:21:35.610Z,23.15
2022-08-30T05:24:01.967Z,23.12
2022-08-30T05:26:28.358Z,23.12
2022-08-30T05:28:54.821Z,23.12
2022-08-30T05:31:21.332Z,23.12
2022-08-30T05:33:47.653Z,23.13
2022-08-30T05:36:14.048Z,23.12
2022-08-30T05:38:40.439Z,23.11
2022-08-30T05:41:10.952Z,23.13
2022-08-30T05:43:33.249Z,23.12
2022-08-30T05:45:59.753Z,23.13
2022-08-30T05:48:26.184Z,23.12
2022-08-30T05:50:52.575Z,23.13
2022-08-30T05:53:18.986Z,23.17
2022-08-30T05:55:45.346Z,23.21
2022-08-30T05:58:11.827Z,23.25
2022-08-30T06:00:38.211Z,23.29
2022-08-30T06:03:04.782Z,23.34
2022-08-30T06:05:31.133Z,23.50
2022-08-30T06:07:57.644Z,23.73
2022-08-30T06:10:24.019Z,24.00
2022-08-30T06:12:50.393Z,24.31
2022-08-30T06:15:16.787Z,24.50
2022-08-30T06:17:43.275Z,24.65
2022-08-30T06:20:09.647Z,24.81
2022-08-30T06:22:36.084Z,25.02
2022-08-30T06:25:02.474Z,25.19
2022-08-30T06:27:28.907Z,25.46
2022-08-30T06:29:55.282Z,25.73
2022-08-30T06:32:21.673Z,25.99
2022-08-30T06:34:48.051Z,26.18
2022-08-30T06:37:29.527Z,26.24
2022-08-30T06:39:40.788Z,26.29
2022-08-30T06:42:07.165Z,26.32
2022-08-30T06:44:33.537Z,26.33
2022-08-30T06:46:59.927Z,26.22
2022-08-30T06:49:26.292Z,26.10
2022-08-30T06:51:52.727Z,26.02
2022-08-30T06:54:19.105Z,25.86
2022-08-30T06:57:00.376Z,25.78
2022-08-30T06:59:11.956Z,25.76
2022-08-30T07:01:38.388Z,25.76
2022-08-30T07:04:04.727Z,25.82
2022-08-30T07:06:31.097Z,25.77
2022-08-30T07:08:57.597Z,25.72
2022-08-30T07:11:26.740Z,25.78
2022-08-30T07:13:50.790Z,25.89
2022-08-30T07:16:17.196Z,25.97
2022-08-30T07:18:43.594Z,26.13
2022-08-30T07:21:10.036Z,26.21
2022-08-30T07:23:36.455Z,26.18
2022-08-30T07:26:02.892Z,26.12
2022-08-30T07:28:29.324Z,26.06
2022-08-30T07:30:55.793Z,26.06
2022-08-30T07:33:22.304Z,26.27
2022-08-30T07:35:48.833Z,26.60
2022-08-30T07:38:15.220Z,27.00
2022-08-30T07:40:41.731Z,27.28
2022-08-30T07:43:08.083Z,27.63
2022-08-30T07:45:35.397Z,28.02
2022-08-30T07:48:00.830Z,28.37
2022-08-30T07:50:27.323Z,28.55
2022-08-30T07:52:53.704Z,28.54
2022-08-30T07:55:20.089Z,28.33
2022-08-30T07:57:46.520Z,28.16
2022-08-30T08:00:12.933Z,27.93
2022-08-30T08:02:39.528Z,27.71
2022-08-30T08:05:05.880Z,27.52
2022-08-30T08:07:32.356Z,27.39
2022-08-30T08:09:58.713Z,27.26
2022-08-30T08:12:25.198Z,27.16
2022-08-30T08:14:51.663Z,27.05
2022-08-30T08:17:18.019Z,27.02
2022-08-30T08:19:44.397Z,26.95
2022-08-30T08:22:25.999Z,26.80
2022-08-30T08:24:37.188Z,26.71
2022-08-30T08:27:03.555Z,26.65
2022-08-30T08:29:29.938Z,26.48
2022-08-30T08:31:56.351Z,26.20
2022-08-30T08:34:22.721Z,25.91
2022-08-30T08:36:49.096Z,25.77
2022-08-30T08:39:15.467Z,25.59
2022-08-30T08:41:41.869Z,25.47
2022-08-30T08:44:08.247Z,25.69
2022-08-30T08:46:34.681Z,25.93
2022-08-30T08:49:01.020Z,25.98
2022-08-30T08:51:27.413Z,25.89
2022-08-30T08:53:53.869Z,25.88
2022-08-30T08:56:20.298Z,25.78
2022-08-30T08:58:46.666Z,25.67
2022-08-30T09:01:13.128Z,25.71
2022-08-30T09:03:39.497Z,25.77
2022-08-30T09:06:05.926Z,25.89
2022-08-30T09:08:32.305Z,25.97
2022-08-30T09:10:58.671Z,26.06
2022-08-30T09:13:25.057Z,26.10
2022-08-30T09:15:55.071Z,26.18
2022-08-30T09:18:19.221Z,26.28
2022-08-30T09:20:44.164Z,26.42
2022-08-30T09:23:10.545Z,26.47
2022-08-30T09:25:41.654Z,26.51
2022-08-30T09:28:03.418Z,26.64
2022-08-30T09:30:29.811Z,26.81
2022-08-30T09:32:56.208Z,26.87
2022-08-30T09:35:22.584Z,26.88
2022-08-30T09:37:48.951Z,26.94
2022-08-30T09:40:15.453Z,27.05
2022-08-30T09:42:41.742Z,27.26
2022-08-30T09:45:08.122Z,27.52
2022-08-30T09:47:34.494Z,27.69
2022-08-30T09:50:00.855Z,27.84
2022-08-30T09:52:27.337Z,27.95
2022-08-30T09:54:53.768Z,28.08
2022-08-30T09:57:20.139Z,28.26
2022-08-30T09:59:46.644Z,28.29
2022-08-30T10:02:13.004Z,28.20
2022-08-30T10:04:39.319Z,28.23
2022-08-30T10:07:05.690Z,28.46
2022-08-30T10:09:32.072Z,28.65
2022-08-30T10:11:58.446Z,28.91
2022-08-30T10:14:24.873Z,29.24
2022-08-30T10:16:51.363Z,29.41
2022-08-30T10:19:17.802Z,29.45
2022-08-30T10:21:44.252Z,29.43
2022-08-30T10:24:10.600Z,29.48
2022-08-30T10:26:37.003Z,29.57
2022-08-30T10:29:03.388Z,29.66
2022-08-30T10:31:29.790Z,29.73
2022-08-30T10:33:56.175Z,29.85
2022-08-30T10:36:22.541Z,30.08
2022-08-30T10:38:48.940Z,30.48
2022-08-30T10:41:15.385Z,30.84
2022-08-30T10:43:41.747Z,31.11
2022-08-30T10:46:08.136Z,31.42
2022-08-30T10:48:34.573Z,31.49
2022-08-30T10:51:00.945Z,31.48
2022-08-30T10:53:27.346Z,31.64
2022-08-30T10:55:53.730Z,31.91
2022-08-30T10:58:20.113Z,32.04
2022-08-30T11:00:46.521Z,31.97
2022-08-30T11:03:12.968Z,31.92
2022-08-30T11:05:41.772Z,31.94
2022-08-30T11:08:05.637Z,31.91
2022-08-30T11:10:32.018Z,31.90
2022-08-30T11:12:58.397Z,32.09
2022-08-30T11:15:24.830Z,32.12
2022-08-30T11:17:51.202Z,32.07
2022-08-30T11:20:17.587Z,32.11
2022-08-30T11:22:43.985Z,32.28
2022-08-30T11:25:10.603Z,32.44
2022-08-30T11:27:36.831Z,32.46
2022-08-30T11:30:03.332Z,32.41
2022-08-30T11:32:29.773Z,32.40
2022-08-30T11:34:56.127Z,32.33
2022-08-30T11:37:24.930Z,32.30
2022-08-30T11:39:51.316Z,32.24
2022-08-30T11:42:17.744Z,32.21
2022-08-30T11:44:44.155Z,32.22
2022-08-30T11:47:10.539Z,32.21
2022-08-30T11:49:36.920Z,32.22
2022-08-30T11:54:29.758Z,32.19
2022-08-30T11:56:56.436Z,32.11
2022-08-30T11:59:22.513Z,32.01
2022-08-30T12:01:55.051Z,32.05
2022-08-30T12:04:15.589Z,32.12
2022-08-30T12:06:41.814Z,32.20
2022-08-30T12:09:08.555Z,32.33
2022-08-30T12:11:34.577Z,32.41
2022-08-30T12:14:01.067Z,32.45
2022-08-30T12:16:27.467Z,32.40
2022-08-30T12:18:53.835Z,32.43
2022-08-30T12:21:20.262Z,32.44
2022-08-30T12:23:46.648Z,32.46
2022-08-30T12:26:13.134Z,32.54
2022-08-30T12:28:42.171Z,32.54
2022-08-30T12:31:05.863Z,32.58
2022-08-30T12:33:36.613Z,32.59
2022-08-30T12:35:58.617Z,32.56
2022-08-30T12:38:27.566Z,32.55
2022-08-30T12:40:51.421Z,32.57
2022-08-30T12:43:17.853Z,32.61
2022-08-30T12:45:44.319Z,32.56
2022-08-30T12:48:10.681Z,32.52
2022-08-30T12:50:37.024Z,32.53
2022-08-30T12:53:03.426Z,32.53
2022-08-30T12:55:29.810Z,32.51
2022-08-30T12:58:00.677Z,32.45
2022-08-30T13:00:22.598Z,32.42
2022-08-30T13:02:48.966Z,32.35
2022-08-30T13:05:15.335Z,32.39
2022-08-30T13:07:41.728Z,32.37
2022-08-30T13:10:08.122Z,32.41
2022-08-30T13:12:34.503Z,32.44
2022-08-30T13:15:00.892Z,32.51
2022-08-30T13:17:27.285Z,32.45
2022-08-30T13:19:53.680Z,32.35
2022-08-30T13:22:20.333Z,32.29
2022-08-30T13:24:46.561Z,32.08
2022-08-30T13:27:12.951Z,31.72
2022-08-30T13:29:39.344Z,31.46
2022-08-30T13:32:05.731Z,31.49
2022-08-30T13:34:32.102Z,31.36
2022-08-30T13:36:58.522Z,31.25
2022-08-30T13:39:24.886Z,31.22
2022-08-30T13:41:51.594Z,30.96
2022-08-30T13:44:17.758Z,30.66
2022-08-30T13:46:44.838Z,30.50
2022-08-30T13:49:43.084Z,30.73
2022-08-30T13:51:36.915Z,30.91
2022-08-30T13:54:03.281Z,30.88
2022-08-30T13:56:29.805Z,31.01
2022-08-30T13:58:56.091Z,31.09
2022-08-30T14:01:22.546Z,31.17
2022-08-30T14:06:32.239Z,31.18
2022-08-30T14:08:46.396Z,31.12
2022-08-30T14:11:08.115Z,31.04
2022-08-30T14:13:34.511Z,31.02
2022-08-30T14:18:27.347Z,31.01
2022-08-30T14:20:53.738Z,30.94
2022-08-30T14:23:20.117Z,30.81
2022-08-30T14:25:46.546Z,30.61
2022-08-30T14:28:12.972Z,30.48
2022-08-30T14:30:39.288Z,30.40
2022-08-30T14:33:05.681Z,30.55
2022-08-30T14:35:32.064Z,30.60
2022-08-30T14:37:58.430Z,30.47
2022-08-30T14:40:24.943Z,30.31
2022-08-30T14:42:51.333Z,30.31
2022-08-30T14:45:17.696Z,30.42
2022-08-30T14:47:44.288Z,30.45
2022-08-30T14:50:10.650Z,30.35
2022-08-30T14:52:37.068Z,30.36
2022-08-30T14:55:08.965Z,30.37
2022-08-30T14:57:29.833Z,30.23
2022-08-30T14:59:56.272Z,30.23
2022-08-30T15:02:26.560Z,30.22
2022-08-30T15:04:49.523Z,30.19
2022-08-30T15:07:15.572Z,30.18
2022-08-30T15:09:41.965Z,30.18
2022-08-30T15:12:08.422Z,30.09
2022-08-30T15:14:34.861Z,30.06
2022-08-30T15:17:01.263Z,30.04
2022-08-30T15:19:27.644Z,30.04
2022-08-30T15:21:54.023Z,30.00
2022-08-30T15:24:20.382Z,29.94
2022-08-30T15:26:46.749Z,29.77
2022-08-30T15:29:13.146Z,29.67
2022-08-30T15:31:39.683Z,29.67
2022-08-30T15:34:05.949Z,29.62
2022-08-30T15:36:32.317Z,29.55
2022-08-30T15:38:58.686Z,29.49
2022-08-30T15:41:25.565Z,29.43
2022-08-30T15:43:51.958Z,29.37
2022-08-30T15:46:18.365Z,29.31
2022-08-30T15:48:45.689Z,29.27
2022-08-30T15:51:11.357Z,29.26
2022-08-30T15:53:37.728Z,29.25
2022-08-30T15:56:04.092Z,29.20
2022-08-30T15:58:30.477Z,29.13
2022-08-30T16:00:56.941Z,29.08
2022-08-30T16:03:23.240Z,29.01
2022-08-30T16:05:49.632Z,28.94
2022-08-30T16:08:16.050Z,28.89
2022-08-30T16:10:43.320Z,28.83
2022-08-30T16:13:08.761Z,28.76
2022-08-30T16:15:35.273Z,28.72
2022-08-30T16:18:01.658Z,28.69
2022-08-30T16:20:28.026Z,28.66
2022-08-30T16:22:54.419Z,28.63
2022-08-30T16:25:20.806Z,28.57
2022-08-30T16:27:47.189Z,28.49
2022-08-30T16:30:13.558Z,28.42
2022-08-30T16:32:40.000Z,28.33
2022-08-30T16:35:06.525Z,28.27
2022-08-30T16:37:32.848Z,28.22
2022-08-30T16:39:59.357Z,28.17
2022-08-30T16:42:25.704Z,28.11
2022-08-30T16:44:52.513Z,28.05
2022-08-30T16:47:18.540Z,27.99
2022-08-30T16:49:44.858Z,27.93
2022-08-30T16:52:11.283Z,27.86
2022-08-30T16:54:37.665Z,27.79
2022-08-30T16:57:04.062Z,27.74
2022-08-30T16:59:30.434Z,27.71
2022-08-30T17:01:56.885Z,27.71
2022-08-30T17:04:23.230Z,27.68
2022-08-30T17:06:50.065Z,27.61
2022-08-30T17:09:16.047Z,27.56
2022-08-30T17:11:42.411Z,27.51
2022-08-30T17:14:08.781Z,27.48
2022-08-30T17:16:35.184Z,27.47
2022-08-30T17:19:01.534Z,27.43
2022-08-30T17:21:27.913Z,27.41
2022-08-30T17:23:54.285Z,27.42
2022-08-30T17:26:20.654Z,27.43
2022-08-30T17:28:47.142Z,27.39
2022-08-30T17:31:14.899Z,27.36
2022-08-30T17:33:42.975Z,27.34
2022-08-30T17:36:09.360Z,27.31
2022-08-30T17:38:35.746Z,27.27
2022-08-30T17:41:02.131Z,27.26
2022-08-30T17:43:28.520Z,27.22
2022-08-30T17:45:54.927Z,27.18
2022-08-30T17:48:21.292Z,27.11
2022-08-30T17:50:47.682Z,27.07
2022-08-30T17:53:14.057Z,27.04
2022-08-30T17:55:40.442Z,27.04
2022-08-30T17:58:06.843Z,27.03
2022-08-30T18:00:33.209Z,27.00
2022-08-30T18:02:59.627Z,26.98
2022-08-30T18:05:26.034Z,26.96
2022-08-30T18:07:52.431Z,26.92
2022-08-30T18:10:18.795Z,26.90
2022-08-30T18:12:45.292Z,26.85
2022-08-30T18:15:12.650Z,26.79
2022-08-30T18:17:38.073Z,26.78
2022-08-30T18:20:04.476Z,26.80
2022-08-30T18:22:30.866Z,26.78
2022-08-30T18:25:02.141Z,26.74
2022-08-30T18:27:23.915Z,26.72
2022-08-30T18:29:50.034Z,26.70
2022-08-30T18:32:16.423Z,26.65
2022-08-30T18:34:42.865Z,26.61
2022-08-30T18:37:11.534Z,26.59
2022-08-30T18:39:35.633Z,26.57
2022-08-30T18:42:02.005Z,26.52
2022-08-30T18:44:29.233Z,26.47
2022-08-30T18:46:56.420Z,26.46
2022-08-30T18:49:21.165Z,26.46
2022-08-30T18:51:47.482Z,26.41
2022-08-30T18:54:13.884Z,26.35
2022-08-30T18:56:40.370Z,26.31
2022-08-30T18:59:09.497Z,26.29
2022-08-30T19:01:33.225Z,26.30
2022-08-30T19:03:59.526Z,26.30
2022-08-30T19:06:25.928Z,26.24
2022-08-30T19:08:52.337Z,26.18
2022-08-30T19:11:18.725Z,26.15
2022-08-30T19:13:45.091Z,26.11
2022-08-30T19:16:12.218Z,26.07
2022-08-30T19:18:37.960Z,26.06
2022-08-30T19:21:04.473Z,26.06
2022-08-30T19:23:34.222Z,26.03
2022-08-30T19:25:57.161Z,25.98
2022-08-30T19:28:23.528Z,25.94
2022-08-30T19:30:49.945Z,25.92
2022-08-30T19:33:16.335Z,25.83
2022-08-30T19:35:43.553Z,25.77
2022-08-30T19:38:09.151Z,25.71
2022-08-30T19:40:35.529Z,25.68
2022-08-30T19:43:01.893Z,25.66
2022-08-30T19:45:28.263Z,25.67
2022-08-30T19:47:54.633Z,25.66
2022-08-30T19:50:21.071Z,25.66
2022-08-30T19:52:53.298Z,25.65
2022-08-30T19:55:13.852Z,25.63
2022-08-30T19:57:40.242Z,25.60
2022-08-30T20:00:06.709Z,25.57
2022-08-30T20:02:33.094Z,25.55
2022-08-30T20:04:59.461Z,25.53
2022-08-30T20:07:26.243Z,25.48
2022-08-30T20:09:52.277Z,25.48
2022-08-30T20:12:18.675Z,25.52
2022-08-30T20:14:45.208Z,25.55
2022-08-30T20:17:12.129Z,25.59
2022-08-30T20:19:38.069Z,25.58
2022-08-30T20:22:08.048Z,25.55
2022-08-30T20:24:31.014Z,25.53
2022-08-30T20:26:57.262Z,25.50
2022-08-30T20:29:23.626Z,25.48
2022-08-30T20:31:50.031Z,25.45
2022-08-30T20:34:16.467Z,25.43
2022-08-30T20:36:42.852Z,25.40
2022-08-30T20:39:09.331Z,25.42
2022-08-30T20:41:35.692Z,25.44
2022-08-30T20:44:02.096Z,25.42
2022-08-30T20:46:33.410Z,25.37
2022-08-30T20:48:54.884Z,25.37
2022-08-30T20:51:21.291Z,25.34
2022-08-30T20:53:47.728Z,25.33
2022-08-30T20:56:14.108Z,25.30
2022-08-30T20:58:40.595Z,25.26
2022-08-30T21:01:07.002Z,25.21
2022-08-30T21:03:33.357Z,25.12
2022-08-30T21:05:59.742Z,25.04
2022-08-30T21:08:26.224Z,25.04
2022-08-30T21:10:52.599Z,25.05
2022-08-30T21:13:18.963Z,25.04
2022-08-30T21:15:45.347Z,25.05
2022-08-30T21:18:11.726Z,25.05
2022-08-30T21:20:38.182Z,25.04
2022-08-30T21:23:04.559Z,25.00
2022-08-30T21:25:30.946Z,24.96
2022-08-30T21:27:57.378Z,24.93
2022-08-30T21:30:23.743Z,24.91
2022-08-30T21:32:50.161Z,24.88
2022-08-30T21:35:16.527Z,24.84
2022-08-30T21:37:42.939Z,24.81
2022-08-30T21:40:09.367Z,24.78
2022-08-30T21:42:35.671Z,24.78
2022-08-30T21:45:02.106Z,24.79
2022-08-30T21:47:28.461Z,24.80
2022-08-30T21:49:54.866Z,24.78
2022-08-30T21:52:21.299Z,24.75
2022-08-30T21:54:47.666Z,24.70
2022-08-30T21:57:14.062Z,24.68
2022-08-30T21:59:40.498Z,24.63
2022-08-30T22:02:06.883Z,24.65
2022-08-30T22:04:33.264Z,24.65
2022-08-30T22:06:59.648Z,24.63
2022-08-30T22:09:26.129Z,24.60
2022-08-30T22:11:52.495Z,24.56
2022-08-30T22:14:18.866Z,24.53
2022-08-30T22:16:45.310Z,24.50
2022-08-30T22:19:11.654Z,24.49
2022-08-30T22:21:38.039Z,24.48
2022-08-30T22:24:04.402Z,24.46
2022-08-30T22:26:30.786Z,24.46
2022-08-30T22:28:57.154Z,24.43
2022-08-30T22:31:23.586Z,24.39
2022-08-30T22:33:49.943Z,24.39
2022-08-30T22:36:16.323Z,24.37
2022-08-30T22:38:42.810Z,24.31
2022-08-30T22:41:09.269Z,24.25
2022-08-30T22:43:35.644Z,24.21
2022-08-30T22:46:02.068Z,24.18
2022-08-30T22:48:28.374Z,24.15
2022-08-30T22:50:54.760Z,24.16
2022-08-30T22:53:21.120Z,24.15
2022-08-30T22:55:49.915Z,24.12
2022-08-30T22:58:16.285Z,24.10
2022-08-30T23:00:42.895Z,24.08
2022-08-30T23:03:09.193Z,24.06
2022-08-30T23:05:35.554Z,24.02
2022-08-30T23:08:02.436Z,24.00
2022-08-30T23:10:28.857Z,23.95
2022-08-30T23:12:55.236Z,23.94
2022-08-30T23:15:21.599Z,23.96
2022-08-30T23:17:47.974Z,23.94
2022-08-30T23:20:14.376Z,23.93
2022-08-30T23:22:40.739Z,23.92
2022-08-30T23:25:15.819Z,23.89
2022-08-30T23:27:33.523Z,23.88
2022-08-30T23:29:59.906Z,23.89
2022-08-30T23:32:26.270Z,23.87
2022-08-30T23:34:52.716Z,23.86
2022-08-30T23:37:19.080Z,23.83
2022-08-30T23:39:45.467Z,23.85
2022-08-30T23:42:11.913Z,23.81
2022-08-30T23:44:38.345Z,23.79
2022-08-30T23:47:04.738Z,23.79
2022-08-30T23:49:31.096Z,23.74
2022-08-30T23:51:57.494Z,23.76
2022-08-30T23:54:23.974Z,23.77
2022-08-30T23:56:50.343Z,23.77
2022-08-30T23:59:16.795Z,23.76
